Terminal Aerodrome Forecast
Issued by NWS

Home | Current Version | Previous Version | Text Only | Print | Product List | Glossary On
Versions: 1 2 3 4 5 6 7 8 9 10 11 12 13 14 15
000
FTUS45 KABQ 301734
TAFSAF
TAF
KSAF 301734Z 3018/3118 36006KT P6SM VCSH SCT020 BKN080
      TEMPO 3019/3021 18006KT BKN050
     FM302100 15008KT P6SM VCTS SCT050CB BKN090
      TEMPO 3022/3102 VRB15G25KT TSRA OVC030CB
     FM310600 03006KT P6SM VCSH SCT025 OVC040
      TEMPO 3110/3114 5SM BR
     FM311600 20006KT P6SM BKN040 BKN070=

USA.gov is the U.S. government's official web portal to all federal, state and local government web resources and services.